sensor_id;sensor_type;location;lat;lon;timestamp;P1;durP1;ratioP1;P2;durP2;ratioP2
9374;SDS011;4727;51.202;6.344;2022-08-20T00:00:29;19.37;;;14.83;;
9374;SDS011;4727;51.202;6.344;2022-08-20T00:02:57;17.80;;;15.10;;
9374;SDS011;4727;51.202;6.344;2022-08-20T00:05:27;15.63;;;13.97;;
9374;SDS011;4727;51.202;6.344;2022-08-20T00:07:56;16.30;;;14.53;;
9374;SDS011;4727;51.202;6.344;2022-08-20T00:10:23;17.23;;;14.40;;
9374;SDS011;4727;51.202;6.344;2022-08-20T00:12:50;19.40;;;15.00;;
9374;SDS011;4727;51.202;6.344;2022-08-20T00:15:17;19.67;;;14.07;;
9374;SDS011;4727;51.202;6.344;2022-08-20T00:17:45;18.60;;;14.60;;
9374;SDS011;4727;51.202;6.344;2022-08-20T00:20:12;17.73;;;15.23;;
9374;SDS011;4727;51.202;6.344;2022-08-20T00:22:38;20.07;;;14.93;;
9374;SDS011;4727;51.202;6.344;2022-08-20T00:25:04;17.90;;;14.63;;
9374;SDS011;4727;51.202;6.344;2022-08-20T00:27:31;16.53;;;14.73;;
9374;SDS011;4727;51.202;6.344;2022-08-20T00:29:56;17.60;;;15.03;;
9374;SDS011;4727;51.202;6.344;2022-08-20T00:32:22;19.47;;;15.70;;
9374;SDS011;4727;51.202;6.344;2022-08-20T00:34:48;19.10;;;14.43;;
9374;SDS011;4727;51.202;6.344;2022-08-20T00:37:13;21.30;;;15.40;;
9374;SDS011;4727;51.202;6.344;2022-08-20T00:39:39;22.77;;;16.80;;
9374;SDS011;4727;51.202;6.344;2022-08-20T00:42:05;19.20;;;15.43;;
9374;SDS011;4727;51.202;6.344;2022-08-20T00:44:32;20.60;;;15.73;;
9374;SDS011;4727;51.202;6.344;2022-08-20T00:46:57;22.87;;;16.20;;
9374;SDS011;4727;51.202;6.344;2022-08-20T00:49:24;22.23;;;16.53;;
9374;SDS011;4727;51.202;6.344;2022-08-20T00:57:10;22.67;;;17.70;;
9374;SDS011;4727;51.202;6.344;2022-08-20T00:59:49;25.37;;;17.93;;
9374;SDS011;4727;51.202;6.344;2022-08-20T01:02:17;26.40;;;17.47;;
9374;SDS011;4727;51.202;6.344;2022-08-20T01:04:45;25.57;;;17.67;;
9374;SDS011;4727;51.202;6.344;2022-08-20T01:07:20;25.90;;;18.00;;
9374;SDS011;4727;51.202;6.344;2022-08-20T01:09:55;23.30;;;17.90;;
9374;SDS011;4727;51.202;6.344;2022-08-20T01:12:21;26.83;;;18.77;;
9374;SDS011;4727;51.202;6.344;2022-08-20T01:14:48;23.60;;;18.47;;
9374;SDS011;4727;51.202;6.344;2022-08-20T01:17:15;28.37;;;19.23;;
9374;SDS011;4727;51.202;6.344;2022-08-20T01:19:46;29.17;;;20.17;;
9374;SDS011;4727;51.202;6.344;2022-08-20T01:22:37;30.83;;;20.73;;
9374;SDS011;4727;51.202;6.344;2022-08-20T01:25:48;26.50;;;19.50;;
9374;SDS011;4727;51.202;6.344;2022-08-20T01:28:19;29.10;;;20.63;;
9374;SDS011;4727;51.202;6.344;2022-08-20T01:30:50;26.93;;;19.40;;
9374;SDS011;4727;51.202;6.344;2022-08-20T01:33:17;30.33;;;20.77;;
9374;SDS011;4727;51.202;6.344;2022-08-20T01:35:43;28.37;;;20.33;;
9374;SDS011;4727;51.202;6.344;2022-08-20T01:38:09;25.40;;;19.33;;
9374;SDS011;4727;51.202;6.344;2022-08-20T01:43:12;30.33;;;20.33;;
9374;SDS011;4727;51.202;6.344;2022-08-20T01:45:38;28.73;;;20.23;;
9374;SDS011;4727;51.202;6.344;2022-08-20T01:48:04;28.40;;;20.63;;
9374;SDS011;4727;51.202;6.344;2022-08-20T01:50:30;25.73;;;19.60;;
9374;SDS011;4727;51.202;6.344;2022-08-20T01:55:31;28.87;;;19.87;;
9374;SDS011;4727;51.202;6.344;2022-08-20T01:57:56;25.70;;;19.27;;
9374;SDS011;4727;51.202;6.344;2022-08-20T02:00:24;27.53;;;19.33;;
9374;SDS011;4727;51.202;6.344;2022-08-20T02:02:50;26.77;;;19.40;;
9374;SDS011;4727;51.202;6.344;2022-08-20T02:05:16;32.23;;;21.33;;
9374;SDS011;4727;51.202;6.344;2022-08-20T02:07:43;28.43;;;20.13;;
9374;SDS011;4727;51.202;6.344;2022-08-20T02:10:10;28.73;;;20.23;;
9374;SDS011;4727;51.202;6.344;2022-08-20T02:12:37;28.60;;;20.60;;
9374;SDS011;4727;51.202;6.344;2022-08-20T02:15:05;29.07;;;20.23;;
9374;SDS011;4727;51.202;6.344;2022-08-20T02:17:32;27.27;;;19.00;;
9374;SDS011;4727;51.202;6.344;2022-08-20T02:20:17;26.40;;;18.07;;
9374;SDS011;4727;51.202;6.344;2022-08-20T02:22:48;20.87;;;17.03;;
9374;SDS011;4727;51.202;6.344;2022-08-20T02:25:20;23.87;;;18.17;;
9374;SDS011;4727;51.202;6.344;2022-08-20T02:27:48;25.23;;;17.87;;
9374;SDS011;4727;51.202;6.344;2022-08-20T02:30:37;23.73;;;17.70;;
9374;SDS011;4727;51.202;6.344;2022-08-20T02:33:04;19.57;;;16.63;;
9374;SDS011;4727;51.202;6.344;2022-08-20T02:35:31;22.07;;;17.13;;
9374;SDS011;4727;51.202;6.344;2022-08-20T02:37:58;24.60;;;17.00;;
9374;SDS011;4727;51.202;6.344;2022-08-20T02:40:24;21.13;;;16.93;;
9374;SDS011;4727;51.202;6.344;2022-08-20T02:42:51;21.37;;;16.57;;
9374;SDS011;4727;51.202;6.344;2022-08-20T02:45:18;20.93;;;16.33;;
9374;SDS011;4727;51.202;6.344;2022-08-20T02:47:44;21.17;;;17.47;;
9374;SDS011;4727;51.202;6.344;2022-08-20T02:50:16;19.17;;;16.40;;
9374;SDS011;4727;51.202;6.344;2022-08-20T02:52:44;21.43;;;16.40;;
9374;SDS011;4727;51.202;6.344;2022-08-20T02:55:10;22.03;;;17.63;;
9374;SDS011;4727;51.202;6.344;2022-08-20T02:57:37;24.97;;;16.50;;
9374;SDS011;4727;51.202;6.344;2022-08-20T03:00:05;22.37;;;16.77;;
9374;SDS011;4727;51.202;6.344;2022-08-20T03:02:33;21.33;;;16.60;;
9374;SDS011;4727;51.202;6.344;2022-08-20T03:04:58;23.60;;;17.70;;
9374;SDS011;4727;51.202;6.344;2022-08-20T03:07:24;24.57;;;19.07;;
9374;SDS011;4727;51.202;6.344;2022-08-20T03:09:50;24.13;;;19.60;;
9374;SDS011;4727;51.202;6.344;2022-08-20T03:12:15;26.37;;;19.97;;
9374;SDS011;4727;51.202;6.344;2022-08-20T03:14:41;26.43;;;18.87;;
9374;SDS011;4727;51.202;6.344;2022-08-20T03:17:06;21.67;;;18.80;;
9374;SDS011;4727;51.202;6.344;2022-08-20T03:19:32;30.13;;;18.80;;
9374;SDS011;4727;51.202;6.344;2022-08-20T03:21:57;24.83;;;18.80;;
9374;SDS011;4727;51.202;6.344;2022-08-20T03:24:23;16.00;;;13.10;;
9374;SDS011;4727;51.202;6.344;2022-08-20T03:26:49;15.53;;;12.23;;
9374;SDS011;4727;51.202;6.344;2022-08-20T03:29:14;14.80;;;12.23;;
9374;SDS011;4727;51.202;6.344;2022-08-20T03:31:40;21.00;;;14.47;;
9374;SDS011;4727;51.202;6.344;2022-08-20T03:34:06;18.80;;;13.97;;
9374;SDS011;4727;51.202;6.344;2022-08-20T03:36:31;18.93;;;14.93;;
9374;SDS011;4727;51.202;6.344;2022-08-20T03:38:58;12.67;;;10.20;;
9374;SDS011;4727;51.202;6.344;2022-08-20T03:41:25;12.63;;;9.37;;
9374;SDS011;4727;51.202;6.344;2022-08-20T03:43:51;17.87;;;10.63;;
9374;SDS011;4727;51.202;6.344;2022-08-20T03:46:17;9.87;;;8.87;;
9374;SDS011;4727;51.202;6.344;2022-08-20T03:48:42;9.10;;;8.23;;
9374;SDS011;4727;51.202;6.344;2022-08-20T03:51:08;9.60;;;7.07;;
9374;SDS011;4727;51.202;6.344;2022-08-20T03:53:34;8.47;;;7.67;;
9374;SDS011;4727;51.202;6.344;2022-08-20T03:56:02;9.17;;;7.53;;
9374;SDS011;4727;51.202;6.344;2022-08-20T03:58:30;8.97;;;7.60;;
9374;SDS011;4727;51.202;6.344;2022-08-20T04:00:57;11.57;;;8.50;;
9374;SDS011;4727;51.202;6.344;2022-08-20T04:03:23;11.30;;;8.77;;
9374;SDS011;4727;51.202;6.344;2022-08-20T04:05:49;12.87;;;9.43;;
9374;SDS011;4727;51.202;6.344;2022-08-20T04:08:17;13.97;;;10.33;;
9374;SDS011;4727;51.202;6.344;2022-08-20T04:10:45;13.07;;;9.97;;
9374;SDS011;4727;51.202;6.344;2022-08-20T04:13:12;14.23;;;11.93;;
9374;SDS011;4727;51.202;6.344;2022-08-20T04:15:39;12.80;;;11.07;;
9374;SDS011;4727;51.202;6.344;2022-08-20T04:18:06;14.33;;;12.13;;
9374;SDS011;4727;51.202;6.344;2022-08-20T04:20:33;21.40;;;15.87;;
9374;SDS011;4727;51.202;6.344;2022-08-20T04:23:01;25.80;;;18.10;;
9374;SDS011;4727;51.202;6.344;2022-08-20T04:25:27;39.60;;;27.63;;
9374;SDS011;4727;51.202;6.344;2022-08-20T04:27:56;50.10;;;33.67;;
9374;SDS011;4727;51.202;6.344;2022-08-20T04:30:22;69.80;;;40.83;;
9374;SDS011;4727;51.202;6.344;2022-08-20T04:32:49;62.27;;;40.67;;
9374;SDS011;4727;51.202;6.344;2022-08-20T04:35:16;67.50;;;42.33;;
9374;SDS011;4727;51.202;6.344;2022-08-20T04:37:42;62.07;;;40.30;;
9374;SDS011;4727;51.202;6.344;2022-08-20T04:40:13;66.10;;;41.43;;
9374;SDS011;4727;51.202;6.344;2022-08-20T04:43:02;64.93;;;40.83;;
9374;SDS011;4727;51.202;6.344;2022-08-20T04:45:29;67.10;;;41.37;;
9374;SDS011;4727;51.202;6.344;2022-08-20T04:47:55;69.37;;;41.27;;
9374;SDS011;4727;51.202;6.344;2022-08-20T04:50:22;63.37;;;39.57;;
9374;SDS011;4727;51.202;6.344;2022-08-20T04:52:48;61.47;;;41.30;;
9374;SDS011;4727;51.202;6.344;2022-08-20T04:55:14;62.80;;;41.13;;
9374;SDS011;4727;51.202;6.344;2022-08-20T04:57:41;66.07;;;40.43;;
9374;SDS011;4727;51.202;6.344;2022-08-20T05:00:09;67.53;;;41.50;;
9374;SDS011;4727;51.202;6.344;2022-08-20T05:02:37;69.03;;;42.67;;
9374;SDS011;4727;51.202;6.344;2022-08-20T05:05:04;59.27;;;40.10;;
9374;SDS011;4727;51.202;6.344;2022-08-20T05:07:36;59.80;;;42.33;;
9374;SDS011;4727;51.202;6.344;2022-08-20T05:10:04;68.57;;;42.90;;
9374;SDS011;4727;51.202;6.344;2022-08-20T05:12:30;63.77;;;40.97;;
9374;SDS011;4727;51.202;6.344;2022-08-20T05:14:56;61.70;;;40.87;;
9374;SDS011;4727;51.202;6.344;2022-08-20T05:17:22;55.33;;;39.07;;
9374;SDS011;4727;51.202;6.344;2022-08-20T05:19:47;55.60;;;39.10;;
9374;SDS011;4727;51.202;6.344;2022-08-20T05:22:15;59.70;;;38.93;;
9374;SDS011;4727;51.202;6.344;2022-08-20T05:24:42;56.70;;;38.87;;
9374;SDS011;4727;51.202;6.344;2022-08-20T05:27:08;54.53;;;38.47;;
9374;SDS011;4727;51.202;6.344;2022-08-20T05:29:34;57.80;;;38.33;;
9374;SDS011;4727;51.202;6.344;2022-08-20T05:31:59;64.90;;;40.40;;
9374;SDS011;4727;51.202;6.344;2022-08-20T05:34:25;55.03;;;38.67;;
9374;SDS011;4727;51.202;6.344;2022-08-20T05:36:51;58.07;;;39.70;;
9374;SDS011;4727;51.202;6.344;2022-08-20T05:39:17;62.93;;;40.67;;
9374;SDS011;4727;51.202;6.344;2022-08-20T05:41:44;60.17;;;40.37;;
9374;SDS011;4727;51.202;6.344;2022-08-20T05:44:10;66.53;;;40.67;;
9374;SDS011;4727;51.202;6.344;2022-08-20T05:46:37;64.73;;;40.23;;
9374;SDS011;4727;51.202;6.344;2022-08-20T05:49:05;64.70;;;41.43;;
9374;SDS011;4727;51.202;6.344;2022-08-20T05:51:32;65.30;;;40.17;;
9374;SDS011;4727;51.202;6.344;2022-08-20T05:54:02;60.87;;;40.87;;
9374;SDS011;4727;51.202;6.344;2022-08-20T05:56:30;59.47;;;40.60;;
9374;SDS011;4727;51.202;6.344;2022-08-20T05:58:56;66.53;;;43.03;;
9374;SDS011;4727;51.202;6.344;2022-08-20T06:01:23;67.83;;;42.97;;
9374;SDS011;4727;51.202;6.344;2022-08-20T06:03:48;74.50;;;45.27;;
9374;SDS011;4727;51.202;6.344;2022-08-20T06:06:33;68.93;;;42.60;;
9374;SDS011;4727;51.202;6.344;2022-08-20T06:08:58;57.60;;;39.50;;
9374;SDS011;4727;51.202;6.344;2022-08-20T06:11:24;61.27;;;40.40;;
9374;SDS011;4727;51.202;6.344;2022-08-20T06:13:50;58.40;;;38.57;;
9374;SDS011;4727;51.202;6.344;2022-08-20T06:16:15;61.13;;;39.53;;
9374;SDS011;4727;51.202;6.344;2022-08-20T06:18:41;55.23;;;37.10;;
9374;SDS011;4727;51.202;6.344;2022-08-20T06:21:06;46.23;;;36.83;;
9374;SDS011;4727;51.202;6.344;2022-08-20T06:23:32;55.53;;;35.53;;
9374;SDS011;4727;51.202;6.344;2022-08-20T06:25:58;53.73;;;37.73;;
9374;SDS011;4727;51.202;6.344;2022-08-20T06:28:23;57.97;;;40.13;;
9374;SDS011;4727;51.202;6.344;2022-08-20T06:30:49;53.30;;;38.50;;
9374;SDS011;4727;51.202;6.344;2022-08-20T06:33:14;59.27;;;40.23;;
9374;SDS011;4727;51.202;6.344;2022-08-20T06:35:40;64.50;;;39.90;;
9374;SDS011;4727;51.202;6.344;2022-08-20T06:38:08;64.83;;;41.73;;
9374;SDS011;4727;51.202;6.344;2022-08-20T06:40:36;54.80;;;35.80;;
9374;SDS011;4727;51.202;6.344;2022-08-20T06:43:02;53.13;;;34.90;;
9374;SDS011;4727;51.202;6.344;2022-08-20T06:45:29;60.37;;;34.57;;
9374;SDS011;4727;51.202;6.344;2022-08-20T06:47:58;57.73;;;36.00;;
9374;SDS011;4727;51.202;6.344;2022-08-20T06:50:28;53.63;;;33.77;;
9374;SDS011;4727;51.202;6.344;2022-08-20T06:52:56;51.17;;;31.73;;
9374;SDS011;4727;51.202;6.344;2022-08-20T06:55:23;49.40;;;32.20;;
9374;SDS011;4727;51.202;6.344;2022-08-20T06:58:08;49.20;;;32.47;;
9374;SDS011;4727;51.202;6.344;2022-08-20T07:00:36;42.50;;;30.27;;
9374;SDS011;4727;51.202;6.344;2022-08-20T07:03:04;53.13;;;31.20;;
9374;SDS011;4727;51.202;6.344;2022-08-20T07:05:32;45.93;;;31.10;;
9374;SDS011;4727;51.202;6.344;2022-08-20T07:07:59;48.77;;;30.37;;
9374;SDS011;4727;51.202;6.344;2022-08-20T07:10:26;49.10;;;30.83;;
9374;SDS011;4727;51.202;6.344;2022-08-20T07:12:52;45.63;;;29.17;;
9374;SDS011;4727;51.202;6.344;2022-08-20T07:15:19;45.03;;;29.23;;
9374;SDS011;4727;51.202;6.344;2022-08-20T07:17:49;55.67;;;30.73;;
9374;SDS011;4727;51.202;6.344;2022-08-20T07:20:16;43.57;;;28.80;;
9374;SDS011;4727;51.202;6.344;2022-08-20T07:22:42;47.73;;;28.27;;
9374;SDS011;4727;51.202;6.344;2022-08-20T07:25:09;42.40;;;27.23;;
9374;SDS011;4727;51.202;6.344;2022-08-20T07:27:36;49.90;;;27.67;;
9374;SDS011;4727;51.202;6.344;2022-08-20T07:30:04;46.83;;;26.60;;
9374;SDS011;4727;51.202;6.344;2022-08-20T07:32:50;46.80;;;27.23;;
9374;SDS011;4727;51.202;6.344;2022-08-20T07:35:16;48.77;;;26.83;;
9374;SDS011;4727;51.202;6.344;2022-08-20T07:37:47;49.37;;;26.97;;
9374;SDS011;4727;51.202;6.344;2022-08-20T07:40:16;49.63;;;27.50;;
9374;SDS011;4727;51.202;6.344;2022-08-20T07:42:43;51.70;;;28.53;;
9374;SDS011;4727;51.202;6.344;2022-08-20T07:45:10;56.17;;;30.10;;
9374;SDS011;4727;51.202;6.344;2022-08-20T07:47:38;47.13;;;28.23;;
9374;SDS011;4727;51.202;6.344;2022-08-20T07:50:05;49.17;;;27.83;;
9374;SDS011;4727;51.202;6.344;2022-08-20T07:52:32;51.57;;;27.93;;
9374;SDS011;4727;51.202;6.344;2022-08-20T07:55:02;48.60;;;27.87;;
9374;SDS011;4727;51.202;6.344;2022-08-20T07:57:33;48.27;;;28.13;;
9374;SDS011;4727;51.202;6.344;2022-08-20T07:59:59;51.00;;;29.43;;
9374;SDS011;4727;51.202;6.344;2022-08-20T08:02:25;48.13;;;28.57;;
9374;SDS011;4727;51.202;6.344;2022-08-20T08:04:52;55.70;;;29.67;;
9374;SDS011;4727;51.202;6.344;2022-08-20T08:07:19;46.80;;;29.87;;
9374;SDS011;4727;51.202;6.344;2022-08-20T08:09:46;49.10;;;29.73;;
9374;SDS011;4727;51.202;6.344;2022-08-20T08:12:13;45.53;;;27.37;;
9374;SDS011;4727;51.202;6.344;2022-08-20T08:14:40;42.90;;;27.87;;
9374;SDS011;4727;51.202;6.344;2022-08-20T08:17:08;40.07;;;28.03;;
9374;SDS011;4727;51.202;6.344;2022-08-20T08:19:36;44.40;;;28.73;;
9374;SDS011;4727;51.202;6.344;2022-08-20T08:22:05;42.47;;;27.70;;
9374;SDS011;4727;51.202;6.344;2022-08-20T08:24:36;45.97;;;30.47;;
9374;SDS011;4727;51.202;6.344;2022-08-20T08:27:02;49.87;;;31.13;;
9374;SDS011;4727;51.202;6.344;2022-08-20T08:29:28;50.10;;;31.17;;
9374;SDS011;4727;51.202;6.344;2022-08-20T08:31:54;42.03;;;29.10;;
9374;SDS011;4727;51.202;6.344;2022-08-20T08:34:20;44.87;;;29.27;;
9374;SDS011;4727;51.202;6.344;2022-08-20T08:36:49;49.53;;;29.33;;
9374;SDS011;4727;51.202;6.344;2022-08-20T08:39:15;45.93;;;30.50;;
9374;SDS011;4727;51.202;6.344;2022-08-20T08:41:43;44.80;;;30.83;;
9374;SDS011;4727;51.202;6.344;2022-08-20T08:44:27;48.87;;;30.07;;
9374;SDS011;4727;51.202;6.344;2022-08-20T08:47:47;43.37;;;28.83;;
9374;SDS011;4727;51.202;6.344;2022-08-20T08:49:54;46.20;;;28.30;;
9374;SDS011;4727;51.202;6.344;2022-08-20T08:52:23;55.00;;;29.80;;
9374;SDS011;4727;51.202;6.344;2022-08-20T08:54:56;44.67;;;28.83;;
9374;SDS011;4727;51.202;6.344;2022-08-20T08:57:24;50.80;;;29.10;;
9374;SDS011;4727;51.202;6.344;2022-08-20T08:59:55;45.83;;;28.93;;
9374;SDS011;4727;51.202;6.344;2022-08-20T09:02:28;42.27;;;26.03;;
9374;SDS011;4727;51.202;6.344;2022-08-20T09:04:55;41.37;;;26.30;;
9374;SDS011;4727;51.202;6.344;2022-08-20T09:07:25;40.40;;;26.40;;
9374;SDS011;4727;51.202;6.344;2022-08-20T09:09:54;44.57;;;27.13;;
9374;SDS011;4727;51.202;6.344;2022-08-20T09:12:21;43.17;;;26.67;;
9374;SDS011;4727;51.202;6.344;2022-08-20T09:14:49;41.73;;;26.77;;
9374;SDS011;4727;51.202;6.344;2022-08-20T09:17:16;38.43;;;25.70;;
9374;SDS011;4727;51.202;6.344;2022-08-20T09:19:43;43.53;;;26.77;;
9374;SDS011;4727;51.202;6.344;2022-08-20T09:22:10;42.67;;;27.37;;
9374;SDS011;4727;51.202;6.344;2022-08-20T09:24:38;45.53;;;26.57;;
9374;SDS011;4727;51.202;6.344;2022-08-20T09:27:04;42.83;;;26.43;;
9374;SDS011;4727;51.202;6.344;2022-08-20T09:29:30;38.47;;;26.03;;
9374;SDS011;4727;51.202;6.344;2022-08-20T09:32:03;39.00;;;26.53;;
9374;SDS011;4727;51.202;6.344;2022-08-20T09:34:33;35.53;;;26.10;;
9374;SDS011;4727;51.202;6.344;2022-08-20T09:37:03;38.03;;;26.03;;
9374;SDS011;4727;51.202;6.344;2022-08-20T09:39:29;39.20;;;25.37;;
9374;SDS011;4727;51.202;6.344;2022-08-20T09:41:54;40.33;;;24.83;;
9374;SDS011;4727;51.202;6.344;2022-08-20T09:44:29;36.50;;;26.23;;
9374;SDS011;4727;51.202;6.344;2022-08-20T09:46:55;37.73;;;25.40;;
9374;SDS011;4727;51.202;6.344;2022-08-20T09:49:20;34.90;;;24.77;;
9374;SDS011;4727;51.202;6.344;2022-08-20T09:51:46;34.80;;;25.07;;
9374;SDS011;4727;51.202;6.344;2022-08-20T09:54:12;37.77;;;24.93;;
9374;SDS011;4727;51.202;6.344;2022-08-20T09:56:37;39.77;;;24.57;;
9374;SDS011;4727;51.202;6.344;2022-08-20T09:59:03;40.30;;;24.97;;
9374;SDS011;4727;51.202;6.344;2022-08-20T10:01:29;36.33;;;25.73;;
9374;SDS011;4727;51.202;6.344;2022-08-20T10:03:55;37.97;;;25.47;;
9374;SDS011;4727;51.202;6.344;2022-08-20T10:06:21;38.93;;;25.50;;
9374;SDS011;4727;51.202;6.344;2022-08-20T10:08:47;36.10;;;25.57;;
9374;SDS011;4727;51.202;6.344;2022-08-20T10:11:13;40.87;;;27.00;;
9374;SDS011;4727;51.202;6.344;2022-08-20T10:13:39;37.93;;;27.23;;
9374;SDS011;4727;51.202;6.344;2022-08-20T10:16:04;38.43;;;27.93;;
9374;SDS011;4727;51.202;6.344;2022-08-20T10:18:30;42.73;;;30.10;;
9374;SDS011;4727;51.202;6.344;2022-08-20T10:20:56;45.20;;;31.63;;
9374;SDS011;4727;51.202;6.344;2022-08-20T10:23:21;41.93;;;31.60;;
9374;SDS011;4727;51.202;6.344;2022-08-20T10:25:47;39.00;;;31.03;;
9374;SDS011;4727;51.202;6.344;2022-08-20T10:28:12;39.23;;;29.37;;
9374;SDS011;4727;51.202;6.344;2022-08-20T10:30:38;42.73;;;30.10;;
9374;SDS011;4727;51.202;6.344;2022-08-20T10:33:03;40.87;;;30.07;;
9374;SDS011;4727;51.202;6.344;2022-08-20T10:35:30;47.93;;;30.33;;
9374;SDS011;4727;51.202;6.344;2022-08-20T10:37:56;42.93;;;31.03;;
9374;SDS011;4727;51.202;6.344;2022-08-20T10:40:21;43.93;;;31.47;;
9374;SDS011;4727;51.202;6.344;2022-08-20T10:42:47;44.37;;;32.57;;
9374;SDS011;4727;51.202;6.344;2022-08-20T10:45:14;40.93;;;30.47;;
9374;SDS011;4727;51.202;6.344;2022-08-20T10:47:40;43.17;;;30.23;;
9374;SDS011;4727;51.202;6.344;2022-08-20T10:50:08;39.70;;;30.93;;
9374;SDS011;4727;51.202;6.344;2022-08-20T10:52:36;40.50;;;30.87;;
9374;SDS011;4727;51.202;6.344;2022-08-20T10:55:01;38.20;;;28.63;;
9374;SDS011;4727;51.202;6.344;2022-08-20T10:57:29;35.13;;;28.67;;
9374;SDS011;4727;51.202;6.344;2022-08-20T10:59:56;33.43;;;28.20;;
9374;SDS011;4727;51.202;6.344;2022-08-20T11:02:23;35.77;;;27.27;;
9374;SDS011;4727;51.202;6.344;2022-08-20T11:04:50;31.40;;;25.80;;
9374;SDS011;4727;51.202;6.344;2022-08-20T11:09:42;34.20;;;25.80;;
9374;SDS011;4727;51.202;6.344;2022-08-20T11:12:08;33.43;;;26.00;;
9374;SDS011;4727;51.202;6.344;2022-08-20T11:14:34;28.93;;;23.80;;
9374;SDS011;4727;51.202;6.344;2022-08-20T11:17:00;30.80;;;22.47;;
9374;SDS011;4727;51.202;6.344;2022-08-20T11:19:27;20.80;;;18.60;;
9374;SDS011;4727;51.202;6.344;2022-08-20T11:21:53;22.57;;;20.03;;
9374;SDS011;4727;51.202;6.344;2022-08-20T11:24:19;25.93;;;20.60;;
9374;SDS011;4727;51.202;6.344;2022-08-20T11:26:45;23.83;;;20.93;;
9374;SDS011;4727;51.202;6.344;2022-08-20T11:29:13;27.10;;;21.10;;
9374;SDS011;4727;51.202;6.344;2022-08-20T11:31:39;24.40;;;20.47;;
9374;SDS011;4727;51.202;6.344;2022-08-20T11:34:04;21.80;;;19.40;;
9374;SDS011;4727;51.202;6.344;2022-08-20T11:36:30;23.00;;;20.20;;
9374;SDS011;4727;51.202;6.344;2022-08-20T11:38:56;22.90;;;19.90;;
9374;SDS011;4727;51.202;6.344;2022-08-20T11:41:22;21.50;;;18.63;;
9374;SDS011;4727;51.202;6.344;2022-08-20T11:43:47;21.33;;;18.27;;
9374;SDS011;4727;51.202;6.344;2022-08-20T11:46:13;19.10;;;16.37;;
9374;SDS011;4727;51.202;6.344;2022-08-20T11:48:39;18.97;;;16.80;;
9374;SDS011;4727;51.202;6.344;2022-08-20T11:51:04;18.37;;;15.70;;
9374;SDS011;4727;51.202;6.344;2022-08-20T11:53:30;17.23;;;13.50;;
9374;SDS011;4727;51.202;6.344;2022-08-20T11:55:55;17.57;;;13.17;;
9374;SDS011;4727;51.202;6.344;2022-08-20T11:58:21;12.93;;;10.63;;
9374;SDS011;4727;51.202;6.344;2022-08-20T12:00:47;17.63;;;11.33;;
9374;SDS011;4727;51.202;6.344;2022-08-20T12:03:12;16.60;;;11.87;;
9374;SDS011;4727;51.202;6.344;2022-08-20T12:05:39;16.37;;;12.40;;
9374;SDS011;4727;51.202;6.344;2022-08-20T12:08:07;14.37;;;11.67;;
9374;SDS011;4727;51.202;6.344;2022-08-20T12:10:33;14.20;;;11.17;;
9374;SDS011;4727;51.202;6.344;2022-08-20T12:12:59;16.20;;;12.03;;
9374;SDS011;4727;51.202;6.344;2022-08-20T12:15:25;14.40;;;11.00;;
9374;SDS011;4727;51.202;6.344;2022-08-20T12:17:51;15.20;;;10.30;;
9374;SDS011;4727;51.202;6.344;2022-08-20T12:20:18;14.50;;;10.27;;
9374;SDS011;4727;51.202;6.344;2022-08-20T12:22:43;12.17;;;10.03;;
9374;SDS011;4727;51.202;6.344;2022-08-20T12:25:09;12.90;;;10.30;;
9374;SDS011;4727;51.202;6.344;2022-08-20T12:27:36;13.53;;;8.67;;
9374;SDS011;4727;51.202;6.344;2022-08-20T12:30:04;10.40;;;8.07;;
9374;SDS011;4727;51.202;6.344;2022-08-20T12:32:32;12.27;;;8.70;;
9374;SDS011;4727;51.202;6.344;2022-08-20T12:34:58;11.27;;;7.70;;
9374;SDS011;4727;51.202;6.344;2022-08-20T12:37:25;10.73;;;7.57;;
9374;SDS011;4727;51.202;6.344;2022-08-20T12:39:54;12.03;;;8.37;;
9374;SDS011;4727;51.202;6.344;2022-08-20T12:42:20;12.70;;;9.50;;
9374;SDS011;4727;51.202;6.344;2022-08-20T12:44:46;10.40;;;7.90;;
9374;SDS011;4727;51.202;6.344;2022-08-20T12:47:18;12.60;;;8.53;;
9374;SDS011;4727;51.202;6.344;2022-08-20T12:49:53;10.67;;;8.37;;
9374;SDS011;4727;51.202;6.344;2022-08-20T12:52:25;12.13;;;9.17;;
9374;SDS011;4727;51.202;6.344;2022-08-20T12:54:51;9.53;;;8.17;;
9374;SDS011;4727;51.202;6.344;2022-08-20T12:57:22;11.67;;;8.43;;
9374;SDS011;4727;51.202;6.344;2022-08-20T12:59:52;12.83;;;8.43;;
9374;SDS011;4727;51.202;6.344;2022-08-20T13:02:18;11.43;;;7.88;;
9374;SDS011;4727;51.202;6.344;2022-08-20T13:04:43;9.10;;;7.65;;
9374;SDS011;4727;51.202;6.344;2022-08-20T13:07:09;12.73;;;8.83;;
9374;SDS011;4727;51.202;6.344;2022-08-20T13:09:36;11.30;;;8.73;;
9374;SDS011;4727;51.202;6.344;2022-08-20T13:12:02;11.27;;;8.20;;
9374;SDS011;4727;51.202;6.344;2022-08-20T13:14:28;14.53;;;8.60;;
9374;SDS011;4727;51.202;6.344;2022-08-20T13:16:55;10.53;;;7.33;;
9374;SDS011;4727;51.202;6.344;2022-08-20T13:19:22;10.93;;;8.40;;
9374;SDS011;4727;51.202;6.344;2022-08-20T13:21:47;9.50;;;7.97;;
9374;SDS011;4727;51.202;6.344;2022-08-20T13:24:13;13.07;;;8.13;;
9374;SDS011;4727;51.202;6.344;2022-08-20T13:26:39;8.63;;;7.72;;
9374;SDS011;4727;51.202;6.344;2022-08-20T13:29:04;13.40;;;8.73;;
9374;SDS011;4727;51.202;6.344;2022-08-20T13:31:30;11.00;;;9.00;;
9374;SDS011;4727;51.202;6.344;2022-08-20T13:33:55;10.93;;;9.10;;
9374;SDS011;4727;51.202;6.344;2022-08-20T13:36:21;13.38;;;8.88;;
9374;SDS011;4727;51.202;6.344;2022-08-20T13:38:47;11.50;;;8.43;;
9374;SDS011;4727;51.202;6.344;2022-08-20T13:41:12;13.60;;;9.32;;
9374;SDS011;4727;51.202;6.344;2022-08-20T13:43:38;9.73;;;8.60;;
9374;SDS011;4727;51.202;6.344;2022-08-20T13:46:04;10.40;;;9.05;;
9374;SDS011;4727;51.202;6.344;2022-08-20T13:48:30;13.57;;;8.60;;
9374;SDS011;4727;51.202;6.344;2022-08-20T13:50:56;12.82;;;9.23;;
9374;SDS011;4727;51.202;6.344;2022-08-20T13:53:22;11.07;;;9.70;;
9374;SDS011;4727;51.202;6.344;2022-08-20T13:55:48;15.10;;;9.80;;
9374;SDS011;4727;51.202;6.344;2022-08-20T13:58:14;12.27;;;9.60;;
9374;SDS011;4727;51.202;6.344;2022-08-20T14:00:41;11.23;;;8.77;;
9374;SDS011;4727;51.202;6.344;2022-08-20T14:03:07;10.13;;;8.52;;
9374;SDS011;4727;51.202;6.344;2022-08-20T14:05:33;11.50;;;8.38;;
9374;SDS011;4727;51.202;6.344;2022-08-20T14:08:07;9.98;;;8.68;;
9374;SDS011;4727;51.202;6.344;2022-08-20T14:10:41;13.20;;;9.52;;
9374;SDS011;4727;51.202;6.344;2022-08-20T14:13:08;11.60;;;9.07;;
9374;SDS011;4727;51.202;6.344;2022-08-20T14:15:34;11.75;;;8.90;;
9374;SDS011;4727;51.202;6.344;2022-08-20T14:18:00;11.85;;;8.90;;
9374;SDS011;4727;51.202;6.344;2022-08-20T14:20:28;12.13;;;9.00;;
9374;SDS011;4727;51.202;6.344;2022-08-20T14:22:55;10.77;;;8.18;;
9374;SDS011;4727;51.202;6.344;2022-08-20T14:25:21;9.98;;;7.45;;
9374;SDS011;4727;51.202;6.344;2022-08-20T14:27:48;10.40;;;7.70;;
9374;SDS011;4727;51.202;6.344;2022-08-20T14:30:19;9.15;;;7.30;;
9374;SDS011;4727;51.202;6.344;2022-08-20T14:32:47;10.27;;;8.40;;
9374;SDS011;4727;51.202;6.344;2022-08-20T14:35:13;14.85;;;9.07;;
9374;SDS011;4727;51.202;6.344;2022-08-20T14:37:41;9.60;;;7.13;;
9374;SDS011;4727;51.202;6.344;2022-08-20T14:40:10;10.52;;;7.30;;
9374;SDS011;4727;51.202;6.344;2022-08-20T14:42:38;12.85;;;8.50;;
9374;SDS011;4727;51.202;6.344;2022-08-20T14:45:05;10.65;;;8.15;;
9374;SDS011;4727;51.202;6.344;2022-08-20T14:47:53;10.57;;;8.10;;
9374;SDS011;4727;51.202;6.344;2022-08-20T14:50:21;10.55;;;7.90;;
9374;SDS011;4727;51.202;6.344;2022-08-20T14:52:55;8.80;;;7.63;;
9374;SDS011;4727;51.202;6.344;2022-08-20T14:55:23;11.15;;;8.45;;
9374;SDS011;4727;51.202;6.344;2022-08-20T14:57:51;10.40;;;7.63;;
9374;SDS011;4727;51.202;6.344;2022-08-20T15:00:18;10.68;;;7.95;;
9374;SDS011;4727;51.202;6.344;2022-08-20T15:02:46;9.50;;;8.00;;
9374;SDS011;4727;51.202;6.344;2022-08-20T15:05:12;14.98;;;10.02;;